Time;durP1;ratioP1;P1;durP2;ratioP2;P2;SDS_P1;SDS_P2;PMS_P1;PMS_P2;Temp;Humidity;BMP_temperature;BMP_pressure;BME280_temperature;BME280_humidity;BME280_pressure;Samples;Min_cycle;Max_cycle;Signal;HPM_P1;HPM_P2
2023/04/17 00:00:02;;;;;;;;;;;10.00;99.90;;;;;;5012822;28;20004;-72
2023/04/17 00:02:28;;;;;;;;;;;9.90;99.90;;;;;;5013002;28;19920;-72
2023/04/17 00:04:54;;;;;;;;;;;9.90;99.90;;;;;;5014123;28;19916;-72
2023/04/17 00:07:21;;;;;;;;;;;9.90;99.90;;;;;;5015128;28;19910;-72
2023/04/17 00:09:49;;;;;;;;;;;9.90;99.90;;;;;;5014014;28;19918;-73
2023/04/17 00:12:15;;;;;;;;;;;9.90;99.90;;;;;;5014991;28;20379;-72
2023/04/17 00:14:40;;;;;;;;;;;9.90;99.90;;;;;;5012799;28;19909;-73
2023/04/17 00:17:06;;;;;;;;;;;9.90;99.90;;;;;;5014057;28;19909;-72
2023/04/17 00:19:31;;;;;;;;;;;10.00;99.90;;;;;;5014211;28;19963;-72
2023/04/17 00:21:57;;;;;;;;;;;9.90;99.90;;;;;;5017076;28;19952;-72
2023/04/17 00:24:22;;;;;;;;;;;10.00;99.90;;;;;;5015426;28;19913;-72
2023/04/17 00:26:48;;;;;;;;;;;10.00;99.90;;;;;;5014271;28;19955;-72
2023/04/17 00:29:13;;;;;;;;;;;9.90;99.90;;;;;;5013863;28;19913;-72
2023/04/17 00:31:39;;;;;;;;;;;9.90;99.90;;;;;;5014057;28;20493;-72
2023/04/17 00:34:04;;;;;;;;;;;9.90;99.90;;;;;;5013322;28;19910;-73
2023/04/17 00:36:30;;;;;;;;;;;9.90;99.90;;;;;;5014233;28;19909;-72
2023/04/17 00:38:56;;;;;;;;;;;9.90;99.90;;;;;;5013678;28;19956;-72
2023/04/17 00:41:21;;;;;;;;;;;9.90;99.90;;;;;;5013690;28;19913;-72
2023/04/17 00:43:47;;;;;;;;;;;9.90;99.90;;;;;;5012411;28;20286;-71
2023/04/17 00:46:13;;;;;;;;;;;9.80;99.90;;;;;;5012481;28;19910;-72
2023/04/17 00:48:39;;;;;;;;;;;9.80;99.90;;;;;;5012349;28;19917;-73
2023/04/17 00:51:05;;;;;;;;;;;9.80;99.90;;;;;;5012440;28;19940;-73
2023/04/17 00:53:31;;;;;;;;;;;9.90;99.90;;;;;;5012333;28;19909;-72
2023/04/17 00:55:59;;;;;;;;;;;9.80;99.90;;;;;;5012061;28;19952;-72
2023/04/17 00:58:25;;;;;;;;;;;9.80;99.90;;;;;;5013655;28;20359;-72
2023/04/17 01:00:51;;;;;;;;;;;9.80;99.90;;;;;;5013686;28;19924;-71
2023/04/17 01:03:16;;;;;;;;;;;9.80;99.90;;;;;;5013033;28;19917;-73
2023/04/17 01:05:42;;;;;;;;;;;9.80;99.90;;;;;;5012491;28;20400;-73
2023/04/17 01:08:08;;;;;;;;;;;9.80;99.90;;;;;;5013487;28;19910;-73
2023/04/17 01:10:33;;;;;;;;;;;9.80;99.90;;;;;;5011944;28;20246;-72
2023/04/17 01:13:02;;;;;;;;;;;9.80;99.90;;;;;;5012257;28;20282;-72
2023/04/17 01:15:27;;;;;;;;;;;9.80;99.90;;;;;;5012244;28;19920;-73
2023/04/17 01:17:53;;;;;;;;;;;9.70;99.90;;;;;;5016074;28;19999;-72
2023/04/17 01:20:18;;;;;;;;;;;9.70;99.90;;;;;;5017149;28;19909;-72
2023/04/17 01:22:47;;;;;;;;;;;9.70;99.90;;;;;;5017029;28;19914;-73
2023/04/17 01:25:12;;;;;;;;;;;9.70;99.90;;;;;;5015985;28;19924;-72
2023/04/17 01:27:38;;;;;;;;;;;9.70;99.90;;;;;;5017165;28;19909;-73
2023/04/17 01:30:04;;;;;;;;;;;9.70;99.90;;;;;;5017135;28;19914;-72
2023/04/17 01:32:29;;;;;;;;;;;9.70;99.90;;;;;;5017245;28;20002;-72
2023/04/17 01:34:54;;;;;;;;;;;9.70;99.90;;;;;;5016632;28;19909;-72
2023/04/17 01:37:20;;;;;;;;;;;9.60;99.90;;;;;;5015977;28;19909;-72
2023/04/17 01:39:45;;;;;;;;;;;9.60;99.90;;;;;;5016335;28;19909;-72
2023/04/17 01:42:11;;;;;;;;;;;9.50;99.90;;;;;;5016536;28;19940;-72
2023/04/17 01:44:37;;;;;;;;;;;9.60;99.90;;;;;;5015416;28;19936;-73
2023/04/17 01:47:03;;;;;;;;;;;9.60;99.90;;;;;;5015317;28;19949;-72
2023/04/17 01:49:28;;;;;;;;;;;9.60;99.90;;;;;;5016427;28;19960;-72
2023/04/17 01:51:54;;;;;;;;;;;9.60;99.90;;;;;;5016554;28;19914;-72
2023/04/17 01:54:20;;;;;;;;;;;9.60;99.90;;;;;;5016731;28;20387;-72
2023/04/17 01:56:45;;;;;;;;;;;9.50;99.90;;;;;;5015556;28;19945;-73
2023/04/17 01:59:11;;;;;;;;;;;9.50;99.90;;;;;;5015204;28;19910;-72
2023/04/17 02:01:36;;;;;;;;;;;9.50;99.90;;;;;;5016495;28;19957;-71
2023/04/17 02:04:02;;;;;;;;;;;9.50;99.90;;;;;;5015246;28;19993;-70
2023/04/17 02:06:27;;;;;;;;;;;9.50;99.90;;;;;;5016655;28;20370;-72
2023/04/17 02:08:53;;;;;;;;;;;9.50;99.90;;;;;;5016164;28;19910;-70
2023/04/17 02:11:18;;;;;;;;;;;9.50;99.90;;;;;;5015647;28;20367;-73
2023/04/17 02:13:43;;;;;;;;;;;9.50;99.90;;;;;;5017433;28;20000;-72
2023/04/17 02:16:11;;;;;;;;;;;9.50;99.90;;;;;;5017376;28;19909;-72
2023/04/17 02:18:37;;;;;;;;;;;9.50;99.90;;;;;;5015771;28;20290;-72
2023/04/17 02:21:02;;;;;;;;;;;9.50;99.90;;;;;;5015046;28;19918;-72
2023/04/17 02:23:28;;;;;;;;;;;9.50;99.90;;;;;;5016154;28;19916;-72
2023/04/17 02:25:53;;;;;;;;;;;9.50;99.90;;;;;;5015977;28;19910;-72
2023/04/17 02:28:19;;;;;;;;;;;9.50;99.90;;;;;;5015682;28;20267;-72
2023/04/17 02:30:44;;;;;;;;;;;9.50;99.90;;;;;;5016052;28;19913;-72
2023/04/17 02:33:10;;;;;;;;;;;9.50;99.90;;;;;;5016100;28;20001;-72
2023/04/17 02:35:36;;;;;;;;;;;9.50;99.90;;;;;;5015607;28;19917;-72
2023/04/17 02:38:01;;;;;;;;;;;9.50;99.90;;;;;;5014058;28;20313;-72
2023/04/17 02:40:27;;;;;;;;;;;9.40;99.90;;;;;;5014165;28;19913;-73
2023/04/17 02:42:52;;;;;;;;;;;9.40;99.90;;;;;;5015472;28;19922;-72
2023/04/17 02:45:18;;;;;;;;;;;9.40;99.90;;;;;;5015864;28;19917;-72
2023/04/17 02:47:43;;;;;;;;;;;9.40;99.90;;;;;;5015674;28;19910;-72
2023/04/17 02:50:09;;;;;;;;;;;9.40;99.90;;;;;;5013957;28;20414;-72
2023/04/17 02:52:35;;;;;;;;;;;9.50;99.90;;;;;;5013969;28;19916;-72
2023/04/17 02:55:00;;;;;;;;;;;9.50;99.90;;;;;;5014833;28;19917;-72
2023/04/17 02:57:25;;;;;;;;;;;9.50;99.90;;;;;;5015427;28;19916;-72
2023/04/17 02:59:51;;;;;;;;;;;9.50;99.90;;;;;;5014124;28;19924;-72
2023/04/17 03:02:20;;;;;;;;;;;9.50;99.90;;;;;;5015042;28;19910;-72
2023/04/17 03:04:49;;;;;;;;;;;9.50;99.90;;;;;;5013749;28;19909;-72
2023/04/17 03:07:17;;;;;;;;;;;9.40;99.90;;;;;;5015056;28;19909;-72
2023/04/17 03:09:46;;;;;;;;;;;9.50;99.90;;;;;;5015218;28;20440;-72
2023/04/17 03:12:13;;;;;;;;;;;9.50;99.90;;;;;;5013931;28;19910;-72
2023/04/17 03:14:39;;;;;;;;;;;9.40;99.90;;;;;;5014375;28;19909;-72
2023/04/17 03:17:04;;;;;;;;;;;9.40;99.90;;;;;;5015253;28;19910;-72
2023/04/17 03:19:30;;;;;;;;;;;9.30;99.90;;;;;;5015353;28;20362;-72
2023/04/17 03:21:55;;;;;;;;;;;9.30;99.90;;;;;;5014872;28;19924;-72
2023/04/17 03:24:21;;;;;;;;;;;9.30;99.90;;;;;;5014732;28;19916;-72
2023/04/17 03:26:46;;;;;;;;;;;9.30;99.90;;;;;;5014929;28;19933;-72
2023/04/17 03:29:12;;;;;;;;;;;9.20;99.90;;;;;;5014749;28;20060;-72
2023/04/17 03:31:37;;;;;;;;;;;9.30;99.90;;;;;;5013283;28;19916;-71
2023/04/17 03:34:02;;;;;;;;;;;9.30;99.90;;;;;;5013509;28;19980;-71
2023/04/17 03:36:28;;;;;;;;;;;9.20;99.90;;;;;;5014338;28;19910;-72
2023/04/17 03:38:54;;;;;;;;;;;9.20;99.90;;;;;;5014297;28;19913;-71
2023/04/17 03:41:20;;;;;;;;;;;9.20;99.90;;;;;;5013769;28;19916;-71
2023/04/17 03:43:45;;;;;;;;;;;9.20;99.90;;;;;;5014773;28;20011;-71
2023/04/17 03:46:11;;;;;;;;;;;9.20;99.90;;;;;;5014508;28;19916;-72
2023/04/17 03:48:36;;;;;;;;;;;9.10;99.90;;;;;;5013029;28;20008;-72
2023/04/17 03:51:02;;;;;;;;;;;9.20;99.90;;;;;;5014053;28;19924;-72
2023/04/17 03:53:29;;;;;;;;;;;9.10;99.90;;;;;;5014267;28;19914;-72
2023/04/17 03:55:55;;;;;;;;;;;9.10;99.90;;;;;;5013947;28;20324;-72
2023/04/17 03:58:20;;;;;;;;;;;9.20;99.90;;;;;;5014504;28;19909;-72
2023/04/17 04:00:47;;;;;;;;;;;9.30;99.90;;;;;;5014371;28;19909;-71
2023/04/17 04:03:13;;;;;;;;;;;9.40;99.90;;;;;;5014216;28;20043;-72
2023/04/17 04:05:38;;;;;;;;;;;9.30;99.90;;;;;;5013989;28;19979;-72
2023/04/17 04:08:04;;;;;;;;;;;9.20;99.90;;;;;;5012779;28;19913;-71
2023/04/17 04:10:31;;;;;;;;;;;9.30;99.90;;;;;;5013752;28;20382;-72
2023/04/17 04:12:56;;;;;;;;;;;9.20;99.90;;;;;;5013059;28;19959;-72
2023/04/17 04:15:22;;;;;;;;;;;9.20;99.90;;;;;;5013023;28;19917;-72
2023/04/17 04:17:47;;;;;;;;;;;9.10;99.90;;;;;;5018049;28;19971;-72
2023/04/17 04:20:13;;;;;;;;;;;9.10;99.90;;;;;;5018685;28;19910;-73
2023/04/17 04:22:40;;;;;;;;;;;9.30;99.90;;;;;;5017572;28;20007;-72
2023/04/17 04:25:06;;;;;;;;;;;9.30;99.90;;;;;;5012891;28;19909;-71
2023/04/17 04:27:31;;;;;;;;;;;9.20;99.90;;;;;;5012940;28;19910;-72
2023/04/17 04:29:58;;;;;;;;;;;9.20;99.90;;;;;;5014055;28;20286;-72
2023/04/17 04:32:24;;;;;;;;;;;9.20;99.90;;;;;;5012047;28;19910;-71
2023/04/17 04:34:50;;;;;;;;;;;9.20;99.90;;;;;;5013760;28;19920;-72
2023/04/17 04:37:16;;;;;;;;;;;9.10;99.90;;;;;;5013742;28;20401;-71
2023/04/17 04:39:42;;;;;;;;;;;9.10;99.90;;;;;;5013611;28;19968;-73
2023/04/17 04:42:08;;;;;;;;;;;9.20;99.90;;;;;;5009535;28;20386;-69
2023/04/17 04:44:35;;;;;;;;;;;9.20;99.90;;;;;;5005789;28;19996;-71
2023/04/17 04:47:00;;;;;;;;;;;9.20;99.90;;;;;;5003580;28;19929;-72
2023/04/17 04:49:26;;;;;;;;;;;9.20;99.90;;;;;;5008979;28;19917;-70
2023/04/17 04:51:51;;;;;;;;;;;9.10;99.90;;;;;;5014930;28;19983;-71
2023/04/17 04:54:17;;;;;;;;;;;9.10;99.90;;;;;;5026866;28;19914;-70
2023/04/17 04:56:43;;;;;;;;;;;9.00;99.90;;;;;;5018284;28;19971;-70
2023/04/17 04:59:12;;;;;;;;;;;9.10;99.90;;;;;;5017707;28;20441;-70
2023/04/17 05:01:38;;;;;;;;;;;9.10;99.90;;;;;;5017571;28;20440;-71
2023/04/17 05:04:04;;;;;;;;;;;9.10;99.90;;;;;;5018304;28;19910;-71
2023/04/17 05:06:30;;;;;;;;;;;9.10;99.90;;;;;;5018289;28;20285;-69
2023/04/17 05:08:55;;;;;;;;;;;9.10;99.90;;;;;;5016815;28;19910;-70
2023/04/17 05:11:21;;;;;;;;;;;9.20;99.90;;;;;;5020680;28;19910;-70
2023/04/17 05:13:46;;;;;;;;;;;9.20;99.90;;;;;;5018580;28;19996;-71
2023/04/17 05:16:11;;;;;;;;;;;9.30;99.90;;;;;;5018063;28;19913;-72
2023/04/17 05:18:37;;;;;;;;;;;9.30;99.90;;;;;;5017727;28;20255;-72
2023/04/17 05:21:02;;;;;;;;;;;9.30;99.90;;;;;;5017920;28;20013;-72
2023/04/17 05:23:28;;;;;;;;;;;9.30;99.90;;;;;;5017616;28;19909;-73
2023/04/17 05:25:53;;;;;;;;;;;9.40;99.90;;;;;;5018670;28;19909;-72
2023/04/17 05:28:19;;;;;;;;;;;9.40;99.90;;;;;;5017637;28;19918;-67
2023/04/17 05:30:44;;;;;;;;;;;9.40;99.90;;;;;;5017081;28;19921;-67
2023/04/17 05:33:10;;;;;;;;;;;9.50;99.90;;;;;;5018535;28;20393;-72
2023/04/17 05:35:35;;;;;;;;;;;9.50;99.90;;;;;;5018999;28;19917;-72
2023/04/17 05:38:01;;;;;;;;;;;9.50;99.90;;;;;;5017469;28;19917;-72
2023/04/17 05:40:26;;;;;;;;;;;9.50;99.90;;;;;;5017250;28;20251;-72
2023/04/17 05:42:52;;;;;;;;;;;9.50;99.90;;;;;;5017449;28;19948;-73
2023/04/17 05:45:17;;;;;;;;;;;9.50;99.90;;;;;;5016821;28;20051;-71
2023/04/17 05:47:43;;;;;;;;;;;9.50;99.90;;;;;;5017577;28;19921;-72
2023/04/17 05:50:08;;;;;;;;;;;9.50;99.90;;;;;;5016676;28;19913;-73
2023/04/17 05:52:34;;;;;;;;;;;9.60;99.90;;;;;;5018379;28;20274;-72
2023/04/17 05:55:00;;;;;;;;;;;9.60;99.90;;;;;;5015877;28;20000;-71
2023/04/17 05:57:25;;;;;;;;;;;9.50;99.90;;;;;;5012213;28;20017;-71
2023/04/17 05:59:51;;;;;;;;;;;9.50;99.90;;;;;;5015681;28;19910;-73
2023/04/17 06:02:16;;;;;;;;;;;9.60;99.90;;;;;;5008818;28;19921;-72
2023/04/17 06:04:42;;;;;;;;;;;9.60;99.90;;;;;;5007675;28;19917;-71
2023/04/17 06:07:09;;;;;;;;;;;9.70;99.90;;;;;;5021394;28;19910;-71
2023/04/17 06:09:35;;;;;;;;;;;9.70;99.90;;;;;;5019284;28;19913;-72
2023/04/17 06:12:01;;;;;;;;;;;9.70;99.90;;;;;;5019351;28;19916;-72
2023/04/17 06:14:27;;;;;;;;;;;9.70;99.90;;;;;;5020659;28;19988;-72
2023/04/17 06:16:52;;;;;;;;;;;9.80;99.90;;;;;;5019062;28;19940;-73
2023/04/17 06:19:17;;;;;;;;;;;9.80;99.90;;;;;;5019643;28;19910;-72
2023/04/17 06:21:43;;;;;;;;;;;9.90;99.90;;;;;;5019627;28;19910;-72
2023/04/17 06:24:08;;;;;;;;;;;9.90;99.90;;;;;;5018791;28;19909;-72
2023/04/17 06:26:34;;;;;;;;;;;9.90;99.90;;;;;;5018759;28;20319;-72
2023/04/17 06:29:00;;;;;;;;;;;9.80;99.90;;;;;;5022319;28;19909;-73
2023/04/17 06:31:25;;;;;;;;;;;9.80;99.90;;;;;;5020834;28;19917;-72
2023/04/17 06:33:51;;;;;;;;;;;9.80;99.90;;;;;;5020322;28;20279;-72
2023/04/17 06:36:16;;;;;;;;;;;9.80;99.90;;;;;;5020290;28;20017;-73
2023/04/17 06:38:42;;;;;;;;;;;9.90;99.90;;;;;;5020386;28;19914;-73
2023/04/17 06:41:07;;;;;;;;;;;10.00;99.90;;;;;;5018940;28;19968;-73
2023/04/17 06:43:33;;;;;;;;;;;10.00;99.90;;;;;;5019151;28;20004;-72
2023/04/17 06:45:59;;;;;;;;;;;10.10;99.90;;;;;;5018333;28;19916;-72
2023/04/17 06:48:24;;;;;;;;;;;10.20;99.90;;;;;;5017558;28;19910;-72
2023/04/17 06:50:50;;;;;;;;;;;10.20;99.90;;;;;;5017413;28;20374;-74
2023/04/17 06:53:15;;;;;;;;;;;10.20;99.90;;;;;;5017251;28;19909;-72
2023/04/17 06:55:41;;;;;;;;;;;10.20;99.90;;;;;;5019086;28;19977;-71
2023/04/17 06:58:07;;;;;;;;;;;10.20;99.90;;;;;;5018014;28;19909;-72
2023/04/17 07:00:32;;;;;;;;;;;10.20;99.90;;;;;;5018721;28;19936;-73
2023/04/17 07:02:58;;;;;;;;;;;10.20;99.90;;;;;;5018099;28;19909;-73
2023/04/17 07:05:23;;;;;;;;;;;10.10;99.90;;;;;;5016572;28;20076;-72
2023/04/17 07:07:49;;;;;;;;;;;10.10;99.90;;;;;;5018487;28;19917;-72
2023/04/17 07:10:18;;;;;;;;;;;10.10;99.90;;;;;;5017402;28;20115;-73
2023/04/17 07:12:43;;;;;;;;;;;10.10;99.90;;;;;;5017032;28;19916;-72
2023/04/17 07:15:09;;;;;;;;;;;10.10;99.90;;;;;;5014634;28;19945;-74
2023/04/17 07:17:34;;;;;;;;;;;10.20;99.90;;;;;;5016775;28;20278;-73
2023/04/17 07:20:00;;;;;;;;;;;10.30;99.90;;;;;;5016024;28;20282;-72
2023/04/17 07:22:25;;;;;;;;;;;10.40;99.90;;;;;;5014645;28;19914;-72
2023/04/17 07:24:51;;;;;;;;;;;10.40;99.90;;;;;;5016559;28;19909;-71
2023/04/17 07:27:16;;;;;;;;;;;10.50;99.90;;;;;;5016954;28;20048;-72
2023/04/17 07:29:43;;;;;;;;;;;10.60;99.90;;;;;;5017564;28;19956;-73
2023/04/17 07:32:09;;;;;;;;;;;10.70;99.90;;;;;;5017906;28;19917;-73
2023/04/17 07:34:40;;;;;;;;;;;10.80;99.90;;;;;;5014950;28;20052;-73
2023/04/17 07:37:05;;;;;;;;;;;10.90;99.90;;;;;;5017621;28;19916;-71
2023/04/17 07:39:31;;;;;;;;;;;11.00;99.90;;;;;;5017266;28;20338;-73
2023/04/17 07:41:56;;;;;;;;;;;11.10;99.90;;;;;;5015066;28;19913;-72
2023/04/17 07:44:21;;;;;;;;;;;11.10;99.90;;;;;;5015068;28;19920;-73
2023/04/17 07:46:47;;;;;;;;;;;11.10;99.90;;;;;;5013805;28;19996;-72
2023/04/17 07:49:12;;;;;;;;;;;11.10;99.90;;;;;;5014261;28;19913;-72
2023/04/17 07:51:39;;;;;;;;;;;11.10;99.90;;;;;;5015231;28;19910;-73
2023/04/17 07:54:05;;;;;;;;;;;11.00;99.90;;;;;;5015194;28;19939;-73
2023/04/17 07:56:33;;;;;;;;;;;11.00;99.90;;;;;;5013705;28;19916;-73
2023/04/17 07:58:58;;;;;;;;;;;11.10;99.90;;;;;;5014713;28;19910;-72
2023/04/17 08:01:25;;;;;;;;;;;11.20;99.90;;;;;;5014602;28;20282;-72
2023/04/17 08:03:50;;;;;;;;;;;11.40;99.90;;;;;;5014743;28;19917;-73
2023/04/17 08:06:16;;;;;;;;;;;11.60;99.90;;;;;;5014037;28;19909;-73
2023/04/17 08:08:46;;;;;;;;;;;11.80;99.90;;;;;;5013937;28;20421;-73
2023/04/17 08:11:12;;;;;;;;;;;11.80;99.90;;;;;;5012746;28;19967;-69
2023/04/17 08:13:37;;;;;;;;;;;11.90;99.90;;;;;;5013928;28;19916;-68
2023/04/17 08:16:03;;;;;;;;;;;11.80;99.90;;;;;;5015108;28;19909;-69
2023/04/17 08:18:28;;;;;;;;;;;11.90;99.90;;;;;;5015201;28;19979;-68
2023/04/17 08:20:54;;;;;;;;;;;11.90;99.90;;;;;;5015123;28;20330;-69
2023/04/17 08:23:20;;;;;;;;;;;11.80;99.90;;;;;;5014702;28;19909;-68
2023/04/17 08:25:45;;;;;;;;;;;11.80;99.90;;;;;;5015961;28;19916;-70
2023/04/17 08:28:10;;;;;;;;;;;11.80;99.90;;;;;;5018755;28;19920;-68
2023/04/17 08:30:36;;;;;;;;;;;11.60;99.90;;;;;;5016758;28;19914;-67
2023/04/17 08:33:02;;;;;;;;;;;11.50;99.90;;;;;;5018353;28;19909;-68
2023/04/17 08:35:27;;;;;;;;;;;11.40;99.90;;;;;;5019020;28;20297;-68
2023/04/17 08:37:54;;;;;;;;;;;11.40;99.90;;;;;;5018444;28;20016;-68
2023/04/17 08:40:22;;;;;;;;;;;11.30;99.90;;;;;;5016438;28;19917;-69
2023/04/17 08:42:48;;;;;;;;;;;11.30;99.90;;;;;;5016503;28;20401;-68
2023/04/17 08:45:15;;;;;;;;;;;11.30;99.90;;;;;;5018583;28;20001;-74
2023/04/17 08:47:41;;;;;;;;;;;11.30;99.90;;;;;;5018573;28;20363;-73
2023/04/17 08:50:10;;;;;;;;;;;11.30;99.90;;;;;;5016542;28;19987;-73
2023/04/17 08:52:43;;;;;;;;;;;11.40;99.90;;;;;;5017527;28;20309;-73
2023/04/17 08:55:10;;;;;;;;;;;11.50;99.90;;;;;;5016698;28;19909;-71
2023/04/17 08:57:52;;;;;;;;;;;11.50;99.90;;;;;;5017899;28;19941;-73
2023/04/17 09:00:22;;;;;;;;;;;11.50;99.90;;;;;;5017977;28;20404;-73
2023/04/17 09:02:53;;;;;;;;;;;11.40;99.90;;;;;;5017727;28;19909;-73
2023/04/17 09:05:20;;;;;;;;;;;11.50;99.90;;;;;;5017669;28;19909;-72
2023/04/17 09:07:45;;;;;;;;;;;11.50;99.90;;;;;;5016346;28;19948;-71
2023/04/17 09:10:11;;;;;;;;;;;11.60;99.90;;;;;;5016213;28;19949;-71
2023/04/17 09:12:40;;;;;;;;;;;11.60;99.90;;;;;;5019100;28;19916;-72
2023/04/17 09:15:15;;;;;;;;;;;11.70;99.90;;;;;;5017950;28;19925;-73
2023/04/17 09:17:41;;;;;;;;;;;11.90;99.90;;;;;;5016697;28;19910;-71
2023/04/17 09:20:07;;;;;;;;;;;12.00;99.90;;;;;;5017589;28;19917;-73
2023/04/17 09:22:34;;;;;;;;;;;12.00;99.90;;;;;;5015948;28;19913;-73
2023/04/17 09:25:00;;;;;;;;;;;12.10;99.90;;;;;;5016283;28;19949;-73
2023/04/17 09:27:26;;;;;;;;;;;12.10;99.90;;;;;;5016928;28;19917;-72
2023/04/17 09:29:58;;;;;;;;;;;12.10;99.90;;;;;;5015944;28;19921;-72
2023/04/17 09:32:24;;;;;;;;;;;12.00;99.90;;;;;;5017535;28;19909;-74
2023/04/17 09:34:50;;;;;;;;;;;11.90;99.90;;;;;;5015979;28;20375;-73
2023/04/17 09:37:16;;;;;;;;;;;11.90;99.90;;;;;;5016031;28;19909;-73
2023/04/17 09:39:54;;;;;;;;;;;11.90;99.90;;;;;;5016988;28;20370;-72
2023/04/17 09:42:19;;;;;;;;;;;12.00;99.90;;;;;;5016205;28;20386;-73
2023/04/17 09:44:45;;;;;;;;;;;12.10;99.90;;;;;;5019373;28;19917;-73
2023/04/17 09:47:11;;;;;;;;;;;12.20;99.90;;;;;;5018266;28;19910;-72
2023/04/17 09:49:36;;;;;;;;;;;12.30;99.90;;;;;;5019164;28;19961;-72
2023/04/17 09:52:02;;;;;;;;;;;12.30;99.90;;;;;;5016677;28;19914;-72
2023/04/17 09:54:30;;;;;;;;;;;12.40;99.90;;;;;;5016712;28;19914;-72
2023/04/17 09:56:56;;;;;;;;;;;12.50;99.90;;;;;;5016082;28;19909;-72
2023/04/17 09:59:24;;;;;;;;;;;12.50;99.90;;;;;;5016365;28;19910;-72
2023/04/17 10:01:52;;;;;;;;;;;12.70;99.90;;;;;;5014739;28;20011;-73
2023/04/17 10:04:18;;;;;;;;;;;12.90;99.90;;;;;;5015997;28;19918;-73
2023/04/17 10:06:44;;;;;;;;;;;13.10;99.90;;;;;;5016663;28;19916;-72
2023/04/17 10:09:09;;;;;;;;;;;13.00;99.90;;;;;;5015951;28;19910;-73
2023/04/17 10:11:36;;;;;;;;;;;13.10;99.90;;;;;;5015970;28;20008;-72
2023/04/17 10:14:10;;;;;;;;;;;13.30;99.90;;;;;;5016392;28;19909;-73
2023/04/17 10:16:36;;;;;;;;;;;13.40;99.90;;;;;;5016683;28;19909;-73
2023/04/17 10:19:20;;;;;;;;;;;13.40;99.90;;;;;;5016876;28;20032;-73
2023/04/17 10:21:49;;;;;;;;;;;13.30;99.90;;;;;;5016256;28;20345;-73
2023/04/17 10:24:25;;;;;;;;;;;13.20;99.90;;;;;;5016096;28;19948;-73
2023/04/17 10:26:50;;;;;;;;;;;13.30;99.90;;;;;;5015956;28;19909;-73
2023/04/17 10:29:17;;;;;;;;;;;13.20;99.90;;;;;;5015885;28;20425;-71
2023/04/17 10:32:06;;;;;;;;;;;13.30;99.90;;;;;;5015788;28;19964;-72
2023/04/17 10:34:35;;;;;;;;;;;13.30;99.90;;;;;;5009573;28;19917;-73
2023/04/17 10:37:02;;;;;;;;;;;13.30;99.90;;;;;;5015271;28;19913;-73
2023/04/17 10:39:46;;;;;;;;;;;13.30;99.90;;;;;;5016376;28;20058;-72
2023/04/17 10:42:16;;;;;;;;;;;13.30;99.90;;;;;;5015337;28;19979;-72
2023/04/17 10:44:44;;;;;;;;;;;13.30;99.90;;;;;;5014548;28;19910;-73
2023/04/17 10:47:09;;;;;;;;;;;13.40;99.90;;;;;;5014300;28;19909;-72
2023/04/17 10:49:54;;;;;;;;;;;13.50;99.90;;;;;;5012801;28;20381;-72
2023/04/17 10:52:32;;;;;;;;;;;13.40;99.90;;;;;;5014063;28;19917;-72
2023/04/17 10:55:14;;;;;;;;;;;13.40;99.90;;;;;;5015587;28;20366;-73
2023/04/17 10:57:52;;;;;;;;;;;13.40;99.90;;;;;;5014299;28;20313;-72
2023/04/17 11:00:18;;;;;;;;;;;13.30;99.90;;;;;;5014690;28;19913;-72
2023/04/17 11:02:44;;;;;;;;;;;13.30;99.90;;;;;;5015165;28;19996;-72
2023/04/17 11:05:10;;;;;;;;;;;13.20;99.90;;;;;;5014075;28;19910;-72
2023/04/17 11:07:36;;;;;;;;;;;13.20;99.90;;;;;;5015508;28;19932;-72
2023/04/17 11:10:05;;;;;;;;;;;13.30;99.90;;;;;;5013667;28;19921;-72
2023/04/17 11:12:31;;;;;;;;;;;13.30;99.90;;;;;;5013504;28;19909;-73
2023/04/17 11:15:00;;;;;;;;;;;13.60;99.90;;;;;;5015148;28;20286;-72
2023/04/17 11:17:26;;;;;;;;;;;13.70;99.90;;;;;;5015161;28;19910;-73
2023/04/17 11:19:52;;;;;;;;;;;13.70;99.90;;;;;;5015143;28;19910;-73
2023/04/17 11:22:18;;;;;;;;;;;13.60;99.90;;;;;;5015598;28;19948;-72
2023/04/17 11:24:43;;;;;;;;;;;13.60;99.90;;;;;;5015851;28;19921;-73
2023/04/17 11:27:09;;;;;;;;;;;13.50;99.90;;;;;;5013849;28;19948;-72
2023/04/17 11:29:34;;;;;;;;;;;13.40;99.90;;;;;;5014331;28;20449;-73
2023/04/17 11:32:00;;;;;;;;;;;13.30;99.90;;;;;;5013525;28;19957;-72
2023/04/17 11:34:25;;;;;;;;;;;13.30;99.90;;;;;;5015059;28;19909;-71
2023/04/17 11:36:52;;;;;;;;;;;13.20;99.90;;;;;;5013306;28;19910;-72
2023/04/17 11:39:18;;;;;;;;;;;13.10;99.90;;;;;;5013297;28;19913;-72
2023/04/17 11:41:44;;;;;;;;;;;13.10;99.90;;;;;;5014302;28;20052;-72
2023/04/17 11:44:12;;;;;;;;;;;13.10;99.90;;;;;;5015204;28;19949;-72
2023/04/17 11:46:38;;;;;;;;;;;13.10;99.90;;;;;;5019097;28;20393;-72
2023/04/17 11:49:04;;;;;;;;;;;13.10;99.90;;;;;;5017162;28;19909;-72
2023/04/17 11:51:30;;;;;;;;;;;13.20;99.90;;;;;;5017180;28;20409;-72
2023/04/17 11:53:56;;;;;;;;;;;13.20;99.90;;;;;;5016861;28;19910;-72
2023/04/17 11:56:27;;;;;;;;;;;13.40;99.90;;;;;;5015553;28;19916;-72
2023/04/17 11:58:52;;;;;;;;;;;13.50;99.90;;;;;;5015055;28;19910;-72
2023/04/17 12:01:19;;;;;;;;;;;13.60;99.90;;;;;;5015367;28;20302;-72
2023/04/17 12:03:46;;;;;;;;;;;13.80;99.90;;;;;;5015186;28;19913;-73
2023/04/17 12:06:12;;;;;;;;;;;13.90;99.90;;;;;;5017837;28;19920;-72
2023/04/17 12:08:52;;;;;;;;;;;14.00;99.90;;;;;;5015610;28;19909;-72
2023/04/17 12:11:24;;;;;;;;;;;14.20;99.90;;;;;;5015060;28;20718;-73
2023/04/17 12:13:50;;;;;;;;;;;14.40;99.90;;;;;;5017801;28;19910;-73
2023/04/17 12:16:16;;;;;;;;;;;14.50;99.90;;;;;;5018340;28;19972;-73
2023/04/17 12:18:41;;;;;;;;;;;14.60;99.90;;;;;;5016836;28;19937;-73
2023/04/17 12:21:06;;;;;;;;;;;14.80;99.90;;;;;;5015649;28;19910;-73
2023/04/17 12:23:32;;;;;;;;;;;14.80;99.90;;;;;;5015724;28;19975;-72
2023/04/17 12:25:57;;;;;;;;;;;14.90;99.90;;;;;;5015490;28;20004;-72
2023/04/17 12:28:23;;;;;;;;;;;14.80;99.90;;;;;;5016208;28;19939;-73
2023/04/17 12:30:48;;;;;;;;;;;14.70;99.90;;;;;;5015367;28;19976;-72
2023/04/17 12:33:14;;;;;;;;;;;14.70;99.90;;;;;;5015334;28;19917;-73
2023/04/17 12:35:39;;;;;;;;;;;14.60;99.90;;;;;;5013610;28;20386;-73
2023/04/17 12:38:05;;;;;;;;;;;14.60;99.90;;;;;;5015251;28;19992;-73
2023/04/17 12:40:31;;;;;;;;;;;14.50;99.90;;;;;;5000717;28;19910;-71
2023/04/17 12:42:57;;;;;;;;;;;14.50;99.90;;;;;;4994642;28;19953;-71
2023/04/17 12:45:23;;;;;;;;;;;14.40;99.90;;;;;;4994962;28;19914;-71
2023/04/17 12:47:49;;;;;;;;;;;14.40;99.90;;;;;;4993571;28;20363;-71
2023/04/17 12:50:14;;;;;;;;;;;14.30;99.90;;;;;;4994523;28;19914;-73
2023/04/17 12:52:40;;;;;;;;;;;14.40;99.90;;;;;;4994158;28;19917;-72
2023/04/17 12:55:06;;;;;;;;;;;14.30;99.90;;;;;;4994151;28;19916;-71
2023/04/17 12:57:32;;;;;;;;;;;14.20;99.90;;;;;;4993744;28;20004;-70
2023/04/17 12:59:58;;;;;;;;;;;14.20;99.90;;;;;;4993054;28;20355;-72
2023/04/17 13:02:23;;;;;;;;;;;14.10;99.90;;;;;;4994264;28;20393;-70
2023/04/17 13:04:49;;;;;;;;;;;14.00;99.90;;;;;;4992898;28;19909;-72
2023/04/17 13:07:15;;;;;;;;;;;14.00;99.90;;;;;;4999791;28;20004;-72
2023/04/17 13:09:41;;;;;;;;;;;14.10;99.90;;;;;;5013510;28;19913;-72
2023/04/17 13:12:06;;;;;;;;;;;14.20;99.90;;;;;;5013252;28;19915;-70
2023/04/17 13:14:32;;;;;;;;;;;14.30;99.90;;;;;;5015926;28;19916;-71
2023/04/17 13:16:58;;;;;;;;;;;14.30;99.90;;;;;;5017278;28;19956;-70
2023/04/17 13:19:24;;;;;;;;;;;14.30;99.90;;;;;;5011286;28;19917;-72
2023/04/17 13:21:50;;;;;;;;;;;14.40;99.90;;;;;;5020575;28;19975;-72
2023/04/17 13:24:15;;;;;;;;;;;14.50;99.90;;;;;;5019810;28;19910;-72
2023/04/17 13:26:41;;;;;;;;;;;14.50;99.90;;;;;;5026246;28;19917;-73
2023/04/17 13:29:07;;;;;;;;;;;14.60;99.90;;;;;;5030645;28;19979;-72
2023/04/17 13:31:32;;;;;;;;;;;14.80;99.90;;;;;;5024804;28;19936;-72
2023/04/17 13:33:58;;;;;;;;;;;14.80;99.90;;;;;;5025450;28;20394;-71
2023/04/17 13:36:23;;;;;;;;;;;14.90;99.90;;;;;;5019426;28;20012;-70
2023/04/17 13:38:48;;;;;;;;;;;15.00;99.90;;;;;;5019232;28;19914;-70
2023/04/17 13:41:14;;;;;;;;;;;15.00;99.90;;;;;;5016299;28;19916;-71
2023/04/17 13:43:40;;;;;;;;;;;14.90;99.90;;;;;;5033119;28;19924;-71
2023/04/17 13:46:07;;;;;;;;;;;14.80;99.90;;;;;;5034573;28;19910;-70
2023/04/17 13:48:33;;;;;;;;;;;14.70;99.90;;;;;;5026621;28;19959;-71
2023/04/17 13:50:59;;;;;;;;;;;14.60;99.90;;;;;;5033197;28;19913;-71
2023/04/17 13:53:24;;;;;;;;;;;14.40;99.90;;;;;;5036083;28;19948;-69
2023/04/17 13:55:50;;;;;;;;;;;14.30;99.90;;;;;;5035004;28;19909;-70
2023/04/17 13:58:15;;;;;;;;;;;14.20;99.90;;;;;;5034858;28;19916;-71
2023/04/17 14:00:41;;;;;;;;;;;14.10;99.90;;;;;;5036251;28;20286;-70
2023/04/17 14:03:06;;;;;;;;;;;14.00;99.90;;;;;;5036454;28;19909;-71
2023/04/17 14:05:32;;;;;;;;;;;14.00;99.90;;;;;;5037091;28;20016;-71
2023/04/17 14:07:57;;;;;;;;;;;13.90;99.90;;;;;;5024910;28;19909;-72
2023/04/17 14:10:23;;;;;;;;;;;13.90;99.90;;;;;;5016417;28;20042;-71
2023/04/17 14:12:48;;;;;;;;;;;13.90;99.90;;;;;;5015923;28;19910;-72
2023/04/17 14:15:14;;;;;;;;;;;13.80;99.90;;;;;;5016013;28;19910;-72
2023/04/17 14:17:41;;;;;;;;;;;13.70;99.90;;;;;;5016068;28;20022;-72